Time;durP1;ratioP1;P1;durP2;ratioP2;P2;SDS_P1;SDS_P2;PMS_P1;PMS_P2;Temp;Humidity;BMP_temperature;BMP_pressure;BME280_temperature;BME280_humidity;BME280_pressure;Samples;Min_cycle;Max_cycle;Signal;HPM_P1;HPM_P2
2023/04/03 00:01:04;;;;;;;0.50;0.50;;;;;;;9.95;72.06;96224.38;5023908;28;20061;-61
2023/04/03 00:03:31;;;;;;;0.50;0.50;;;;;;;10.30;72.34;96288.28;5038698;28;20582;-60
2023/04/03 00:05:58;;;;;;;0.50;0.50;;;;;;;9.55;72.55;96180.25;5023673;28;20176;-61
2023/04/03 00:08:25;;;;;;;0.50;0.50;;;;;;;10.12;72.91;96289.31;5023891;28;20172;-60
2023/04/03 00:10:51;;;;;;;0.50;0.50;;;;;;;10.02;72.86;96271.44;5038700;28;20461;-62
2023/04/03 00:13:18;;;;;;;0.50;0.50;;;;;;;10.01;73.16;96297.53;5023684;28;20053;-63
2023/04/03 00:15:45;;;;;;;0.50;0.50;;;;;;;9.95;73.21;96288.00;5013747;28;20140;-62
2023/04/03 00:18:12;;;;;;;0.50;0.50;;;;;;;9.85;73.93;96282.38;5039988;28;20053;-62
2023/04/03 00:20:39;;;;;;;0.50;0.50;;;;;;;9.32;73.81;96270.91;5042073;28;20084;-61
2023/04/03 00:23:05;;;;;;;0.40;0.40;;;;;;;9.18;74.44;96215.50;5042157;28;20581;-61
2023/04/03 00:25:32;;;;;;;0.50;0.50;;;;;;;9.18;74.34;96215.50;5026797;28;20491;-60
2023/04/03 00:27:59;;;;;;;0.50;0.50;;;;;;;9.60;74.75;96282.19;5026987;28;20068;-61
2023/04/03 00:30:26;;;;;;;0.50;0.50;;;;;;;9.56;74.84;96284.16;5026643;28;20057;-64
2023/04/03 00:32:53;;;;;;;0.45;0.45;;;;;;;9.56;74.29;96278.63;5041954;28;20053;-61
2023/04/03 00:35:21;;;;;;;0.50;0.50;;;;;;;9.41;74.69;96284.38;5026813;28;20456;-60
2023/04/03 00:37:52;;;;;;;0.50;0.50;;;;;;;9.30;75.25;96278.78;5026797;28;20128;-61
2023/04/03 00:40:20;;;;;;;0.50;0.50;;;;;;;9.06;75.81;96284.84;5026531;28;20080;-61
2023/04/03 00:42:50;;;;;;;0.50;0.50;;;;;;;8.98;76.90;96283.16;5041848;28;20049;-61
2023/04/03 00:45:31;;;;;;;0.50;0.50;;;;;;;8.67;77.69;96273.38;5027289;28;20108;-60
2023/04/03 00:47:59;;;;;;;0.40;0.40;;;;;;;8.76;77.85;96286.88;5014642;28;20112;-63
2023/04/03 00:50:29;;;;;;;0.40;0.40;;;;;;;8.60;77.86;96273.28;5006781;28;20053;-61
2023/04/03 00:52:57;;;;;;;0.45;0.45;;;;;;;8.83;76.56;96292.50;5021671;28;20151;-61
2023/04/03 00:55:24;;;;;;;0.45;0.45;;;;;;;8.75;75.85;96293.56;5021308;28;20144;-61
2023/04/03 00:57:52;;;;;;;0.40;0.40;;;;;;;8.82;75.95;96297.22;5006612;28;20085;-63
2023/04/03 01:00:22;;;;;;;0.50;0.50;;;;;;;8.37;75.50;96235.94;5021290;28;20513;-61
2023/04/03 01:02:50;;;;;;;0.50;0.50;;;;;;;8.67;76.42;96300.19;5006518;28;20535;-60
2023/04/03 01:05:20;;;;;;;0.40;0.40;;;;;;;8.23;76.17;96246.78;5021612;28;20050;-58
2023/04/03 01:07:48;;;;;;;0.40;0.40;;;;;;;8.67;76.00;96319.50;5004933;28;20062;-59
2023/04/03 01:10:16;;;;;;;0.50;0.50;;;;;;;8.23;76.37;96246.78;5005935;28;20058;-64
2023/04/03 01:12:46;;;;;;;0.40;0.40;;;;;;;7.93;77.16;96287.31;5004821;28;20053;-60
2023/04/03 01:15:17;;;;;;;0.40;0.40;;;;;;;8.47;78.50;96298.75;5005965;28;20532;-59
2023/04/03 01:17:50;;;;;;;0.40;0.40;;;;;;;8.18;79.53;96266.41;5006467;28;20108;-62
2023/04/03 01:20:35;;;;;;;0.40;0.40;;;;;;;8.57;80.03;96300.84;5006078;28;20049;-61
2023/04/03 01:23:08;;;;;;;0.40;0.40;;;;;;;8.62;79.61;96304.06;5006044;28;20054;-63
2023/04/03 01:25:38;;;;;;;0.40;0.40;;;;;;;8.52;78.84;96277.13;5005797;28;20196;-60
2023/04/03 01:28:07;;;;;;;0.50;0.50;;;;;;;8.62;78.80;96298.56;5004389;28;20124;-59
2023/04/03 01:31:02;;;;;;;0.50;0.50;;;;;;;8.64;79.13;96300.94;5006063;28;20053;-59
2023/04/03 01:33:29;;;;;;;0.40;0.40;;;;;;;8.55;78.55;96308.72;4994181;28;20145;-60
2023/04/03 01:35:56;;;;;;;0.40;0.40;;;;;;;8.01;79.65;96250.41;5021127;28;20120;-59
2023/04/03 01:38:23;;;;;;;0.40;0.40;;;;;;;8.10;79.32;96303.31;5005507;28;20095;-60
2023/04/03 01:40:50;;;;;;;0.40;0.40;;;;;;;7.54;80.56;96243.41;5005685;28;20139;-61
2023/04/03 01:43:17;;;;;;;0.40;0.40;;;;;;;7.97;80.88;96304.69;5005717;28;20108;-60
2023/04/03 01:45:43;;;;;;;0.40;0.40;;;;;;;7.59;80.95;96267.91;5005843;28;20053;-59
2023/04/03 01:48:10;;;;;;;0.40;0.40;;;;;;;8.05;79.64;96306.38;5004046;28;20062;-62
2023/04/03 01:50:37;;;;;;;0.40;0.40;;;;;;;8.08;78.42;96323.00;5004264;28;20077;-59
2023/04/03 01:53:04;;;;;;;0.40;0.40;;;;;;;7.96;79.31;96292.09;5004005;28;20054;-60
2023/04/03 01:55:30;;;;;;;0.40;0.40;;;;;;;8.02;78.27;96318.97;5005003;28;20447;-60
2023/04/03 01:57:57;;;;;;;0.40;0.40;;;;;;;7.74;78.10;96269.69;5005700;28;20441;-59
2023/04/03 02:00:24;;;;;;;0.40;0.40;;;;;;;7.96;79.94;96330.69;5005298;28;20120;-60
2023/04/03 02:02:50;;;;;;;0.40;0.40;;;;;;;8.02;80.23;96318.16;5005188;28;20089;-61
2023/04/03 02:05:17;;;;;;;0.40;0.40;;;;;;;7.99;80.25;96318.91;5020296;28;20057;-60
2023/04/03 02:07:44;;;;;;;0.40;0.40;;;;;;;7.93;80.91;96315.69;5005312;28;20145;-64
2023/04/03 02:10:11;;;;;;;0.40;0.40;;;;;;;7.95;79.35;96318.84;5005097;28;20423;-61
2023/04/03 02:12:38;;;;;;;0.40;0.40;;;;;;;7.85;80.54;96318.69;5003647;28;20100;-61
2023/04/03 02:15:05;;;;;;;0.40;0.40;;;;;;;7.80;80.19;96322.56;5004859;28;20141;-62
2023/04/03 02:17:32;;;;;;;0.40;0.40;;;;;;;7.52;80.70;96300.84;5020037;28;20085;-61
2023/04/03 02:19:58;;;;;;;0.35;0.35;;;;;;;7.77;80.43;96339.84;5020119;28;20095;-62
2023/04/03 02:22:25;;;;;;;0.40;0.40;;;;;;;7.68;80.61;96336.56;5004836;28;20141;-61
2023/04/03 02:24:51;;;;;;;0.40;0.40;;;;;;;7.38;80.36;96284.09;5005195;28;20119;-62
2023/04/03 02:27:18;;;;;;;0.40;0.40;;;;;;;7.81;80.04;96328.88;5004881;28;20224;-59
2023/04/03 02:29:45;;;;;;;0.40;0.40;;;;;;;7.08;79.57;96225.34;5005014;28;20097;-61
2023/04/03 02:32:12;;;;;;;0.40;0.40;;;;;;;7.57;80.98;96325.34;5004890;28;20049;-60
2023/04/03 02:34:39;;;;;;;0.30;0.30;;;;;;;7.22;80.22;96264.13;5003216;28;20520;-62
2023/04/03 02:37:06;;;;;;;0.40;0.40;;;;;;;7.25;81.27;96279.94;5005248;28;20045;-61
2023/04/03 02:39:32;;;;;;;0.40;0.40;;;;;;;7.13;81.69;96276.56;5004437;28;20049;-60
2023/04/03 02:41:59;;;;;;;0.40;0.40;;;;;;;7.32;81.24;96288.31;5004758;28;20557;-60
2023/04/03 02:44:25;;;;;;;0.40;0.40;;;;;;;7.37;80.49;96293.53;5004556;28;20418;-61
2023/04/03 02:46:52;;;;;;;0.40;0.40;;;;;;;7.55;80.03;96322.19;5019450;28;20054;-63
2023/04/03 02:49:19;;;;;;;0.30;0.30;;;;;;;7.30;80.13;96276.84;5003042;28;20049;-61
2023/04/03 02:51:46;;;;;;;0.32;0.32;;;;;;;7.60;79.61;96341.13;5004361;28;20057;-61
2023/04/03 02:54:13;;;;;;;0.30;0.30;;;;;;;7.16;78.99;96260.09;5004241;28;20046;-61
2023/04/03 02:56:39;;;;;;;0.40;0.40;;;;;;;7.56;80.66;96334.78;5002042;28;20108;-61
2023/04/03 02:59:06;;;;;;;0.38;0.38;;;;;;;6.83;82.82;96317.69;5001321;28;20058;-62
2023/04/03 03:01:32;;;;;;;0.30;0.30;;;;;;;6.37;85.49;96277.47;5002867;28;20155;-61
2023/04/03 03:04:00;;;;;;;0.35;0.35;;;;;;;5.86;84.89;96146.81;5003047;28;20492;-61
2023/04/03 03:06:26;;;;;;;0.30;0.30;;;;;;;7.07;84.78;96317.38;5002645;28;20509;-61
2023/04/03 03:08:53;;;;;;;0.40;0.40;;;;;;;7.20;85.01;96327.06;5002924;28;20629;-61
2023/04/03 03:11:20;;;;;;;0.40;0.40;;;;;;;7.27;84.29;96318.91;5003891;28;20104;-61
2023/04/03 03:13:47;;;;;;;0.30;0.30;;;;;;;7.26;83.66;96314.56;5019252;28;20069;-61
2023/04/03 03:16:14;;;;;;;0.38;0.38;;;;;;;7.35;83.44;96334.41;5002983;28;20077;-62
2023/04/03 03:18:40;;;;;;;0.40;0.40;;;;;;;6.89;82.60;96250.16;5019032;28;20057;-60
2023/04/03 03:21:10;;;;;;;0.40;0.40;;;;;;;7.23;83.05;96315.31;5004367;28;20061;-61
2023/04/03 03:23:37;;;;;;;0.30;0.30;;;;;;;7.23;82.85;96296.03;5004232;28;20527;-61
2023/04/03 03:26:06;;;;;;;0.30;0.30;;;;;;;7.08;83.15;96305.19;5004613;28;20414;-61
2023/04/03 03:28:34;;;;;;;0.30;0.30;;;;;;;7.08;82.83;96302.44;5004741;28;20093;-61
2023/04/03 03:31:00;;;;;;;0.40;0.40;;;;;;;6.82;82.62;96250.06;5004187;28;20112;-62
2023/04/03 03:33:27;;;;;;;0.40;0.40;;;;;;;7.18;82.15;96301.03;5004467;28;20054;-61
2023/04/03 03:35:54;;;;;;;0.32;0.32;;;;;;;7.10;82.33;96300.13;5003939;28;20042;-62
2023/04/03 03:38:21;;;;;;;0.40;0.40;;;;;;;7.17;82.76;96304.97;5018751;28;20069;-63
2023/04/03 03:40:48;;;;;;;0.30;0.30;;;;;;;6.98;82.35;96316.81;5002594;28;20050;-61
2023/04/03 03:43:16;;;;;;;0.32;0.32;;;;;;;6.41;82.58;96226.09;5004137;28;20141;-61
2023/04/03 03:45:43;;;;;;;0.30;0.30;;;;;;;7.01;83.19;96291.31;5002540;28;20115;-61
2023/04/03 03:48:10;;;;;;;0.30;0.30;;;;;;;7.10;83.96;96305.63;5004008;28;20057;-61
2023/04/03 03:50:36;;;;;;;0.40;0.40;;;;;;;7.21;82.25;96290.09;5003953;28;20654;-61
2023/04/03 03:53:03;;;;;;;0.40;0.40;;;;;;;6.89;81.91;96272.19;5005889;28;20598;-61
2023/04/03 03:55:30;;;;;;;0.30;0.30;;;;;;;7.18;81.82;96290.03;5021768;28;20053;-62
2023/04/03 03:57:56;;;;;;;0.30;0.30;;;;;;;7.14;82.16;96294.69;5042559;28;20539;-60
2023/04/03 04:00:23;;;;;;;0.40;0.40;;;;;;;7.12;81.57;96286.78;5027103;28;20123;-61
2023/04/03 04:02:49;;;;;;;0.30;0.30;;;;;;;7.08;81.35;96285.13;5027270;28;20049;-60
2023/04/03 04:05:16;;;;;;;0.35;0.35;;;;;;;7.02;82.43;96286.56;5027422;28;20134;-61
2023/04/03 04:07:43;;;;;;;0.30;0.30;;;;;;;6.81;81.42;96250.44;5025486;28;20115;-60
2023/04/03 04:10:10;;;;;;;0.32;0.32;;;;;;;7.12;81.31;96297.81;5025624;28;20523;-60
2023/04/03 04:12:36;;;;;;;0.40;0.40;;;;;;;7.03;81.96;96293.69;5027103;28;20950;-61
2023/04/03 04:15:03;;;;;;;0.40;0.40;;;;;;;6.60;81.70;96226.06;5027143;28;20053;-61
2023/04/03 04:17:30;;;;;;;0.38;0.38;;;;;;;7.02;82.42;96287.38;5026611;28;20052;-61
2023/04/03 04:19:57;;;;;;;0.30;0.30;;;;;;;7.16;81.85;96320.69;5024827;28;20056;-63
2023/04/03 04:22:23;;;;;;;0.40;0.40;;;;;;;7.19;82.67;96303.41;5023473;28;20141;-62
2023/04/03 04:24:50;;;;;;;0.40;0.40;;;;;;;7.22;83.30;96304.66;5025351;28;20195;-62
2023/04/03 04:27:17;;;;;;;0.30;0.30;;;;;;;6.94;84.22;96285.66;5026355;28;20053;-60
2023/04/03 04:29:43;;;;;;;0.40;0.40;;;;;;;7.14;84.04;96314.78;5026692;28;20512;-61
2023/04/03 04:32:10;;;;;;;0.35;0.35;;;;;;;7.17;83.63;96305.78;5026713;28;20132;-61
2023/04/03 04:34:36;;;;;;;0.40;0.40;;;;;;;7.28;83.09;96328.78;5026759;28;20107;-62
2023/04/03 04:37:03;;;;;;;0.40;0.40;;;;;;;7.13;83.08;96293.06;5025219;28;20524;-60
2023/04/03 04:39:30;;;;;;;0.40;0.40;;;;;;;7.30;82.52;96320.94;5026394;28;20057;-61
2023/04/03 04:41:56;;;;;;;0.40;0.40;;;;;;;7.31;82.96;96333.56;5025964;28;20092;-60
2023/04/03 04:44:23;;;;;;;0.30;0.30;;;;;;;7.26;82.71;96322.84;5026390;28;20049;-60
2023/04/03 04:46:49;;;;;;;0.40;0.40;;;;;;;7.41;83.04;96341.19;5024827;28;20463;-60
2023/04/03 04:49:16;;;;;;;0.30;0.30;;;;;;;7.62;82.56;96352.59;5024852;28;20058;-60
2023/04/03 04:51:43;;;;;;;0.40;0.40;;;;;;;7.65;81.88;96349.09;5026152;28;20049;-60
2023/04/03 04:54:18;;;;;;;0.40;0.40;;;;;;;7.11;82.28;96241.13;5024831;28;20049;-60
2023/04/03 04:56:44;;;;;;;0.30;0.30;;;;;;;7.61;81.21;96314.38;5026024;28;20559;-60
2023/04/03 04:59:11;;;;;;;0.40;0.40;;;;;;;7.72;79.65;96283.09;5024745;28;20050;-60
2023/04/03 05:01:38;;;;;;;0.40;0.40;;;;;;;8.32;78.15;96350.19;5024518;28;20562;-61
2023/04/03 05:04:05;;;;;;;0.40;0.40;;;;;;;8.49;77.06;96371.72;5026127;28;20587;-61
2023/04/03 05:06:32;;;;;;;0.40;0.40;;;;;;;8.54;76.28;96357.59;5025937;28;20111;-60
2023/04/03 05:08:59;;;;;;;0.40;0.40;;;;;;;8.55;75.99;96358.41;5026368;28;20140;-63
2023/04/03 05:11:26;;;;;;;0.40;0.40;;;;;;;8.53;76.67;96355.22;5026019;28;20057;-61
2023/04/03 05:13:52;;;;;;;0.40;0.40;;;;;;;8.71;76.24;96367.28;5024364;28;20045;-60
2023/04/03 05:16:19;;;;;;;0.40;0.40;;;;;;;8.76;75.50;96387.06;5025654;28;20108;-61
2023/04/03 05:18:46;;;;;;;0.38;0.38;;;;;;;7.94;74.85;96272.34;5024246;28;20054;-61
2023/04/03 05:21:13;;;;;;;0.40;0.40;;;;;;;8.71;74.15;96384.63;5024294;28;20062;-61
2023/04/03 05:23:40;;;;;;;0.40;0.40;;;;;;;8.75;74.35;96376.41;5025521;28;20504;-62
2023/04/03 05:26:06;;;;;;;0.40;0.40;;;;;;;8.80;73.93;96376.09;5024505;28;20210;-58
2023/04/03 05:28:35;;;;;;;0.40;0.40;;;;;;;9.13;73.90;96387.16;5025753;28;20421;-61
2023/04/03 05:31:01;;;;;;;0.40;0.40;;;;;;;9.28;72.63;96388.09;5025451;28;20203;-62
2023/04/03 05:33:28;;;;;;;0.50;0.50;;;;;;;9.48;71.37;96373.72;5025220;28;20132;-60
2023/04/03 05:35:55;;;;;;;0.43;0.43;;;;;;;9.29;71.82;96343.50;5024244;28;20071;-61
2023/04/03 05:38:22;;;;;;;0.50;0.50;;;;;;;9.69;71.75;96373.91;5025576;28;20147;-61
2023/04/03 05:40:49;;;;;;;0.40;0.40;;;;;;;9.83;70.78;96371.28;5023808;28;20085;-61
2023/04/03 05:43:15;;;;;;;0.50;0.50;;;;;;;10.06;70.68;96360.81;5025433;28;20409;-61
2023/04/03 05:45:43;;;;;;;0.50;0.50;;;;;;;10.19;68.85;96373.22;5023423;28;20045;-61
2023/04/03 05:48:12;;;;;;;0.50;0.50;;;;;;;10.39;69.18;96369.00;5013624;28;20084;-62
2023/04/03 05:50:41;;;;;;;0.50;0.50;;;;;;;9.91;68.79;96242.91;5021145;28;20056;-61
2023/04/03 05:53:17;;;;;;;0.50;0.50;;;;;;;10.20;71.52;96333.28;5009570;28;20050;-68
2023/04/03 05:55:44;;;;;;;0.40;0.40;;;;;;;10.81;71.48;96362.13;5021017;28;20147;-64
2023/04/03 05:58:11;;;;;;;0.50;0.50;;;;;;;9.78;72.14;96254.69;5019068;28;20471;-68
2023/04/03 06:00:38;;;;;;;0.50;0.50;;;;;;;10.75;72.55;96377.53;5024583;28;20077;-67
2023/04/03 06:03:06;;;;;;;0.50;0.50;;;;;;;10.44;71.30;96309.69;5037828;28;21185;-62
2023/04/03 06:05:33;;;;;;;0.50;0.50;;;;;;;10.84;70.70;96351.06;5022846;28;20059;-64
2023/04/03 06:08:00;;;;;;;0.52;0.52;;;;;;;10.60;69.25;96307.41;5039625;28;20061;-69
2023/04/03 06:10:27;;;;;;;0.50;0.50;;;;;;;10.88;68.50;96331.66;5023443;28;20050;-66
2023/04/03 06:12:53;;;;;;;0.50;0.50;;;;;;;11.20;67.79;96332.56;5022664;28;20512;-69
2023/04/03 06:15:20;;;;;;;0.50;0.50;;;;;;;10.62;67.93;96194.28;5023935;28;20077;-66
2023/04/03 06:17:47;;;;;;;0.55;0.55;;;;;;;12.02;66.61;96372.00;5024816;28;20136;-60
2023/04/03 06:20:14;;;;;;;0.60;0.60;;;;;;;11.13;65.44;96192.00;5020228;28;20049;-64
2023/04/03 06:22:41;;;;;;;0.60;0.60;;;;;;;11.34;65.08;96214.19;5023269;28;20573;-71
2023/04/03 06:25:09;;;;;;;0.50;0.50;;;;;;;12.34;64.40;96360.09;5024232;28;20053;-62
2023/04/03 06:27:36;;;;;;;0.60;0.60;;;;;;;12.32;64.08;96335.50;5022956;28;20108;-64
2023/04/03 06:30:05;;;;;;;0.50;0.50;;;;;;;12.48;63.87;96330.31;5009587;28;20464;-70
2023/04/03 06:32:31;;;;;;;0.60;0.60;;;;;;;12.92;62.60;96368.69;5024340;28;20085;-67
2023/04/03 06:34:58;;;;;;;0.60;0.60;;;;;;;13.14;61.91;96371.03;2140773;28;10002029;-62
2023/04/03 06:37:31;;;;;;;0.60;0.60;;;;;;;13.35;61.46;96373.75;4981835;28;20054;-63
2023/04/03 06:39:58;;;;;;;0.60;0.60;;;;;;;11.63;59.47;96071.56;5019583;28;20148;-66
2023/04/03 06:42:24;;;;;;;0.60;0.60;;;;;;;13.46;58.85;96352.22;5004153;28;20089;-64
2023/04/03 06:44:51;;;;;;;0.60;0.60;;;;;;;13.98;57.77;96380.13;5026790;28;20374;-66
2023/04/03 06:47:18;;;;;;;0.60;0.60;;;;;;;14.19;57.57;96375.19;5009176;28;20057;-62
2023/04/03 06:49:45;;;;;;;0.63;0.63;;;;;;;14.45;56.31;96359.88;4996518;28;20084;-66
2023/04/03 06:52:12;;;;;;;0.60;0.60;;;;;;;14.75;55.81;96371.13;5005847;28;20127;-61
2023/04/03 06:54:40;;;;;;;0.70;0.70;;;;;;;14.41;55.65;96303.38;4978583;28;20057;-59
2023/04/03 06:57:07;;;;;;;0.70;0.70;;;;;;;15.27;54.13;96394.84;4990668;28;20049;-60
2023/04/03 06:59:35;;;;;;;0.65;0.65;;;;;;;15.13;52.10;96328.88;4996869;28;20134;-68
2023/04/03 07:02:02;;;;;;;0.70;0.70;;;;;;;15.43;51.71;96356.03;4997560;28;20548;-62
2023/04/03 07:04:28;;;;;;;0.70;0.70;;;;;;;15.47;51.63;96314.91;4997645;28;20462;-66
2023/04/03 07:06:55;;;;;;;0.70;0.70;;;;;;;16.22;49.46;96360.84;4997518;28;20053;-67
2023/04/03 07:09:22;;;;;;;0.80;0.80;;;;;;;15.94;50.03;96333.38;4997345;28;20057;-62
2023/04/03 07:11:48;;;;;;;0.70;0.70;;;;;;;13.73;49.16;96012.09;4996242;28;20119;-62
2023/04/03 07:14:15;;;;;;;0.70;0.70;;;;;;;15.39;50.62;96362.84;4994057;28;20140;-62
2023/04/03 07:16:41;;;;;;;0.77;0.77;;;;;;;15.49;51.04;96362.72;4989825;28;20115;-58
2023/04/03 07:20:19;;;;;;;0.70;0.70;;;;;;;14.94;53.19;96289.66;5052670;22;20433;-60
2023/04/03 07:22:45;;;;;;;0.70;0.70;;;;;;;15.82;50.95;96372.25;5035067;28;20056;-60
2023/04/03 07:25:12;;;;;;;0.70;0.70;;;;;;;16.41;49.76;96371.31;5026590;28;20053;-60
2023/04/03 07:32:28;;;;;;;0.70;0.70;;;;;;;14.72;56.23;96285.53;5036492;28;20986;-61
2023/04/03 07:34:55;;;;;;;0.60;0.60;;;;;;;14.07;59.76;96338.69;5032718;28;20514;-58
2023/04/03 07:37:22;;;;;;;0.70;0.70;;;;;;;14.45;59.59;96376.59;5031109;28;20061;-62
2023/04/03 07:39:49;;;;;;;0.60;0.60;;;;;;;14.39;57.38;96273.16;5035749;28;20065;-61
2023/04/03 07:42:16;;;;;;;0.60;0.60;;;;;;;14.95;55.25;96374.91;5025887;28;20950;-58
2023/04/03 07:44:43;;;;;;;0.77;0.77;;;;;;;15.16;53.26;96344.78;5036483;28;20057;-62
2023/04/03 07:47:10;;;;;;;0.60;0.60;;;;;;;15.59;52.95;96374.94;5040879;28;20865;-58
2023/04/03 07:49:39;;;;;;;0.70;0.70;;;;;;;15.01;53.35;96431.81;5040294;28;20076;-62
2023/04/03 07:52:08;;;;;;;0.70;0.70;;;;;;;14.85;55.90;96373.03;5040865;28;20065;-64
2023/04/03 07:54:35;;;;;;;0.70;0.70;;;;;;;14.58;56.20;96345.03;5040541;28;20067;-59
2023/04/03 07:57:02;;;;;;;0.70;0.70;;;;;;;15.75;55.74;96369.56;5039999;28;20049;-61
2023/04/03 07:59:29;;;;;;;0.70;0.70;;;;;;;16.24;53.92;96358.44;5040130;28;20515;-60
2023/04/03 08:01:56;;;;;;;0.70;0.70;;;;;;;15.88;54.19;96357.41;5032396;28;20053;-59
2023/04/03 08:04:23;;;;;;;0.68;0.68;;;;;;;15.70;54.38;96342.91;5020396;28;20080;-59
2023/04/03 08:06:50;;;;;;;0.75;0.75;;;;;;;16.09;54.35;96317.19;5022414;28;20363;-62
2023/04/03 08:09:18;;;;;;;0.70;0.70;;;;;;;16.03;50.90;96280.53;5038776;28;20439;-58
2023/04/03 08:11:45;;;;;;;0.80;0.80;;;;;;;16.70;50.68;96352.09;5038766;28;20128;-65
2023/04/03 08:14:16;;;;;;;0.70;0.70;;;;;;;16.47;51.07;96355.66;5039724;28;20045;-63
2023/04/03 08:16:45;;;;;;;0.77;0.77;;;;;;;16.69;49.87;96344.13;5037735;28;20072;-62
2023/04/03 08:19:13;;;;;;;0.70;0.70;;;;;;;17.08;49.54;96338.56;5038232;28;20041;-60
2023/04/03 08:21:51;;;;;;;0.70;0.70;;;;;;;17.38;46.92;96341.16;5040799;28;20068;-61
2023/04/03 08:24:17;;;;;;;0.80;0.80;;;;;;;16.10;46.84;96294.41;5040193;28;20071;-62
2023/04/03 08:26:44;;;;;;;0.70;0.70;;;;;;;15.26;47.80;96253.78;5040362;28;20045;-65
2023/04/03 08:29:11;;;;;;;0.70;0.70;;;;;;;16.04;47.94;96332.41;5038704;28;20515;-61
2023/04/03 08:31:38;;;;;;;0.70;0.70;;;;;;;15.66;47.00;96230.50;5037910;28;20150;-62
2023/04/03 08:34:05;;;;;;;0.70;0.70;;;;;;;15.43;48.25;96268.72;5039295;28;20115;-64
2023/04/03 08:36:32;;;;;;;0.70;0.70;;;;;;;15.80;47.88;96266.56;5034160;28;20499;-62
2023/04/03 08:38:59;;;;;;;0.70;0.70;;;;;;;15.63;48.50;96205.41;5024440;28;20486;-58
2023/04/03 08:41:38;;;;;;;0.70;0.70;;;;;;;16.96;46.48;96305.66;5040137;28;20373;-61
2023/04/03 08:44:43;;;;;;;0.70;0.70;;;;;;;16.84;46.47;96315.47;5026122;28;20050;-61
2023/04/03 08:47:29;;;;;;;0.70;0.70;;;;;;;16.35;47.12;96319.91;5026196;28;20087;-63
2023/04/03 08:49:59;;;;;;;0.70;0.70;;;;;;;16.81;46.60;96318.31;5023474;28;20050;-62
2023/04/03 08:52:36;;;;;;;0.70;0.70;;;;;;;17.26;46.76;96316.63;5024106;28;20447;-61
2023/04/03 08:55:16;;;;;;;0.90;0.90;;;;;;;17.93;44.72;96310.34;5023871;28;20561;-60
2023/04/03 08:57:45;;;;;;;0.80;0.80;;;;;;;18.41;42.98;96240.31;5025215;28;20474;-61
2023/04/03 09:00:20;;;;;;;0.70;0.70;;;;;;;18.90;42.22;96300.69;5022604;28;20140;-66
2023/04/03 09:02:52;;;;;;;0.80;0.80;;;;;;;18.12;42.01;96219.78;5023289;28;20111;-61
2023/04/03 09:05:35;;;;;;;0.80;0.80;;;;;;;16.42;43.30;96118.50;5021794;28;20061;-64
2023/04/03 09:08:31;;;;;;;0.80;0.80;;;;;;;16.88;45.15;96298.63;5006240;28;20057;-60
2023/04/03 09:11:03;;;;;;;0.80;0.80;;;;;;;15.63;44.11;96033.13;5004688;28;20500;-63
2023/04/03 09:13:50;;;;;;;0.80;0.80;;;;;;;17.76;43.17;96305.97;5013728;28;20080;-62
2023/04/03 09:16:29;;;;;;;0.80;0.80;;;;;;;17.47;42.08;96296.59;5022364;28;20505;-58
2023/04/03 09:19:29;;;;;;;0.80;0.80;;;;;;;16.64;43.26;96286.69;5014473;28;20158;-61
2023/04/03 09:22:25;;;;;;;0.80;0.80;;;;;;;15.28;44.05;96111.84;5011992;28;20523;-66
2023/04/03 09:25:37;;;;;;;0.70;0.70;;;;;;;17.35;42.70;96281.25;5020694;28;20524;-67
2023/04/03 09:28:09;;;;;;;0.70;0.70;;;;;;;16.04;44.83;96203.91;5011004;28;20156;-68
2023/04/03 09:30:37;;;;;;;0.70;0.70;;;;;;;16.35;44.82;96252.03;5025342;28;20071;-63
2023/04/03 09:33:06;;;;;;;0.80;0.80;;;;;;;16.87;44.41;96263.44;5022528;28;20539;-59
2023/04/03 09:35:36;;;;;;;0.80;0.80;;;;;;;17.50;42.82;96281.72;5011116;28;20068;-64
2023/04/03 09:38:13;;;;;;;0.80;0.80;;;;;;;17.53;43.39;96287.25;5009022;28;20049;-63
2023/04/03 09:40:47;;;;;;;0.80;0.80;;;;;;;17.85;42.12;96292.13;5005706;28;20061;-63
2023/04/03 09:43:16;;;;;;;0.80;0.80;;;;;;;17.17;42.56;96288.41;5016439;28;20049;-61
2023/04/03 09:45:45;;;;;;;0.80;0.80;;;;;;;17.27;42.20;96273.41;5012110;28;20108;-61
2023/04/03 09:48:15;;;;;;;0.70;0.70;;;;;;;17.62;42.43;96292.28;5024441;28;20541;-62
2023/04/03 09:51:01;;;;;;;0.80;0.80;;;;;;;15.05;42.86;95948.03;5013439;28;20054;-61
2023/04/03 09:53:40;;;;;;;0.80;0.80;;;;;;;17.18;42.65;96253.63;5023303;28;20060;-61
2023/04/03 09:56:21;;;;;;;0.80;0.80;;;;;;;17.89;41.48;96287.25;5024236;28;20060;-64
2023/04/03 09:59:01;;;;;;;0.70;0.70;;;;;;;17.50;42.21;96284.53;5023873;28;20100;-61
2023/04/03 10:01:35;;;;;;;0.90;0.90;;;;;;;17.56;43.03;96282.81;5021641;28;20303;-61
2023/04/03 10:04:10;;;;;;;0.80;0.80;;;;;;;17.18;42.72;96287.22;5019487;28;20053;-65
2023/04/03 10:06:54;;;;;;;0.80;0.80;;;;;;;16.97;43.16;96291.22;5021676;28;20053;-59
2023/04/03 10:09:31;;;;;;;;;;;;;;;16.86;44.01;96289.84;5025015;28;20419;-60
2023/04/03 10:12:05;;;;;;;0.73;0.73;;;;;;;16.16;45.52;96284.31;5006242;28;19979;-62
2023/04/03 10:14:37;;;;;;;0.70;0.70;;;;;;;16.35;46.32;96291.97;5004533;28;20061;-61
2023/04/03 10:17:11;;;;;;;0.60;0.60;;;;;;;16.30;46.85;96284.06;4989395;28;20068;-64
2023/04/03 10:19:53;;;;;;;0.70;0.70;;;;;;;16.06;47.08;96276.13;5016129;28;20447;-61
2023/04/03 10:22:30;;;;;;;0.70;0.70;;;;;;;15.93;46.84;96203.28;5005405;28;20056;-59
2023/04/03 10:25:23;;;;;;;0.60;0.60;;;;;;;15.83;47.90;96235.00;5005004;28;20119;-58
2023/04/03 10:27:59;;;;;;;0.70;0.70;;;;;;;15.78;48.35;96268.97;5003097;28;20527;-59
2023/04/03 10:30:29;;;;;;;0.70;0.70;;;;;;;15.92;48.00;96257.56;4993223;28;20058;-60
2023/04/03 10:33:15;;;;;;;0.70;0.70;;;;;;;15.84;48.58;96256.09;5002927;28;20492;-62
2023/04/03 10:36:01;;;;;;;0.70;0.70;;;;;;;15.62;49.33;96254.06;4996503;28;20520;-59
2023/04/03 10:38:50;;;;;;;0.60;0.60;;;;;;;14.52;48.46;95959.31;4997609;28;20046;-59
2023/04/03 10:41:31;;;;;;;0.70;0.70;;;;;;;16.30;48.98;96244.94;5002944;28;20119;-61
2023/04/03 10:44:16;;;;;;;0.70;0.70;;;;;;;16.61;49.27;96240.78;5002027;28;20050;-60
2023/04/03 10:46:46;;;;;;;0.80;0.80;;;;;;;16.52;48.82;96243.34;5000489;28;20468;-63
2023/04/03 10:49:49;;;;;;;0.70;0.70;;;;;;;16.61;51.04;96240.00;5001955;28;20508;-63
2023/04/03 10:52:40;;;;;;;0.80;0.80;;;;;;;16.58;52.03;96233.25;5018335;28;20168;-61
2023/04/03 10:55:13;;;;;;;0.70;0.70;;;;;;;16.62;53.78;96241.56;5000373;28;20081;-61
2023/04/03 10:57:40;;;;;;;0.70;0.70;;;;;;;16.13;56.85;96201.34;5001042;28;20132;-63
2023/04/03 11:00:18;;;;;;;0.73;0.73;;;;;;;15.53;55.94;96134.59;4993690;28;20508;-62
2023/04/03 11:03:06;;;;;;;0.75;0.75;;;;;;;15.11;56.54;96085.03;5000555;28;20120;-65
2023/04/03 11:05:47;;;;;;;0.70;0.70;;;;;;;16.25;54.97;96241.81;5001298;28;20104;-63
2023/04/03 11:08:26;;;;;;;0.70;0.70;;;;;;;16.14;57.26;96250.41;5002224;28;20538;-70
2023/04/03 11:10:59;;;;;;;0.70;0.70;;;;;;;15.93;55.17;96247.97;5001591;28;20064;-62
2023/04/03 11:13:34;;;;;;;0.80;0.80;;;;;;;15.53;57.35;96201.56;4989708;28;20381;-63
2023/04/03 11:16:03;;;;;;;0.70;0.70;;;;;;;16.05;55.27;96233.41;5000721;28;20091;-60
2023/04/03 11:18:46;;;;;;;0.70;0.70;;;;;;;16.27;56.17;96251.38;5002334;28;20132;-66
2023/04/03 11:21:34;;;;;;;0.73;0.73;;;;;;;15.96;55.75;96240.75;5003635;28;20089;-64
2023/04/03 11:24:04;;;;;;;0.70;0.70;;;;;;;16.17;54.54;96238.38;5002196;28;20292;-62
2023/04/03 11:26:38;;;;;;;0.70;0.70;;;;;;;16.54;54.85;96254.91;5002191;28;20423;-63
2023/04/03 11:29:12;;;;;;;0.70;0.70;;;;;;;16.70;54.31;96259.00;5003688;28;20053;-66
2023/04/03 11:32:00;;;;;;;0.80;0.80;;;;;;;15.78;53.79;96123.78;4999964;28;20054;-62
2023/04/03 11:34:43;;;;;;;0.70;0.70;;;;;;;16.64;54.62;96253.13;5003905;28;20883;-67
2023/04/03 11:37:44;;;;;;;0.70;0.70;;;;;;;16.85;55.29;96268.69;5004298;28;20132;-61
2023/04/03 11:40:29;;;;;;;0.80;0.80;;;;;;;16.55;55.07;96267.66;5002927;28;20511;-61
2023/04/03 11:42:59;;;;;;;0.70;0.70;;;;;;;16.01;57.74;96266.19;5002248;28;20046;-61
2023/04/03 11:45:38;;;;;;;0.70;0.70;;;;;;;15.92;60.18;96268.75;4984826;28;20050;-61
2023/04/03 11:48:20;;;;;;;0.70;0.70;;;;;;;16.07;58.39;96231.00;4983632;28;20437;-63
2023/04/03 11:50:52;;;;;;;0.70;0.70;;;;;;;16.15;57.30;96249.22;4990751;28;20129;-65
2023/04/03 11:53:33;;;;;;;0.70;0.70;;;;;;;16.45;55.93;96249.06;4988701;28;20140;-63
2023/04/03 11:56:19;;;;;;;0.70;0.70;;;;;;;16.49;55.61;96257.41;5003330;28;20054;-59
2023/04/03 11:59:14;;;;;;;0.70;0.70;;;;;;;16.54;55.46;96254.91;5001016;28;20085;-62